sensor_id;sensor_type;location;lat;lon;timestamp;pressure;altitude;pressure_sealevel;temperature;humidity
51083;BME280;37131;42.694;23.350;2023-05-23T00:00:19;95376.63;;;10.59;100.00
51083;BME280;37131;42.694;23.350;2023-05-23T00:02:44;95365.38;;;10.58;100.00
51083;BME280;37131;42.694;23.350;2023-05-23T00:05:10;95361.06;;;10.52;100.00
51083;BME280;37131;42.694;23.350;2023-05-23T00:07:36;95370.03;;;10.56;100.00
51083;BME280;37131;42.694;23.350;2023-05-23T00:10:01;95371.53;;;10.64;100.00
51083;BME280;37131;42.694;23.350;2023-05-23T00:12:26;95371.75;;;10.62;100.00
51083;BME280;37131;42.694;23.350;2023-05-23T00:14:53;95366.91;;;10.66;100.00
51083;BME280;37131;42.694;23.350;2023-05-23T00:17:18;95368.16;;;10.45;100.00
51083;BME280;37131;42.694;23.350;2023-05-23T00:19:44;95365.13;;;10.48;100.00
51083;BME280;37131;42.694;23.350;2023-05-23T00:22:10;95368.75;;;10.47;100.00
51083;BME280;37131;42.694;23.350;2023-05-23T00:24:36;95372.44;;;10.39;100.00
51083;BME280;37131;42.694;23.350;2023-05-23T00:27:01;95365.88;;;10.37;100.00
51083;BME280;37131;42.694;23.350;2023-05-23T00:29:26;95373.03;;;10.41;100.00
51083;BME280;37131;42.694;23.350;2023-05-23T00:31:51;95362.53;;;10.29;100.00
51083;BME280;37131;42.694;23.350;2023-05-23T00:34:17;95363.97;;;10.25;100.00
51083;BME280;37131;42.694;23.350;2023-05-23T00:36:42;95366.00;;;10.23;100.00
51083;BME280;37131;42.694;23.350;2023-05-23T00:39:08;95358.19;;;10.23;100.00
51083;BME280;37131;42.694;23.350;2023-05-23T00:41:33;95362.03;;;10.21;100.00
51083;BME280;37131;42.694;23.350;2023-05-23T00:44:00;95364.19;;;10.24;100.00
51083;BME280;37131;42.694;23.350;2023-05-23T00:46:25;95365.84;;;10.18;100.00
51083;BME280;37131;42.694;23.350;2023-05-23T00:48:51;95361.09;;;10.15;100.00
51083;BME280;37131;42.694;23.350;2023-05-23T00:51:17;95360.06;;;10.16;100.00
51083;BME280;37131;42.694;23.350;2023-05-23T00:53:43;95359.25;;;10.15;100.00
51083;BME280;37131;42.694;23.350;2023-05-23T00:56:08;95359.13;;;10.10;100.00
51083;BME280;37131;42.694;23.350;2023-05-23T00:58:33;95359.91;;;10.11;100.00
51083;BME280;37131;42.694;23.350;2023-05-23T01:00:59;95363.84;;;10.01;100.00
51083;BME280;37131;42.694;23.350;2023-05-23T01:03:24;95368.16;;;10.08;100.00
51083;BME280;37131;42.694;23.350;2023-05-23T01:05:52;95363.13;;;10.13;100.00
51083;BME280;37131;42.694;23.350;2023-05-23T01:08:17;95377.59;;;10.09;100.00
51083;BME280;37131;42.694;23.350;2023-05-23T01:10:43;95367.16;;;10.09;100.00
51083;BME280;37131;42.694;23.350;2023-05-23T01:16:02;95365.34;;;10.09;100.00
51083;BME280;37131;42.694;23.350;2023-05-23T01:18:36;95364.56;;;10.09;100.00
51083;BME280;37131;42.694;23.350;2023-05-23T01:21:17;95357.63;;;10.03;100.00
51083;BME280;37131;42.694;23.350;2023-05-23T01:26:32;95369.81;;;10.02;100.00
51083;BME280;37131;42.694;23.350;2023-05-23T01:29:12;95371.56;;;9.90;100.00
51083;BME280;37131;42.694;23.350;2023-05-23T01:31:40;95363.25;;;9.99;100.00
51083;BME280;37131;42.694;23.350;2023-05-23T01:34:07;95362.63;;;10.04;100.00
51083;BME280;37131;42.694;23.350;2023-05-23T01:36:33;95368.81;;;10.03;100.00
51083;BME280;37131;42.694;23.350;2023-05-23T01:39:01;95368.25;;;10.01;100.00
51083;BME280;37131;42.694;23.350;2023-05-23T01:41:26;95368.94;;;10.08;100.00
51083;BME280;37131;42.694;23.350;2023-05-23T01:43:52;95375.19;;;10.07;100.00
51083;BME280;37131;42.694;23.350;2023-05-23T01:46:18;95364.84;;;10.00;100.00
51083;BME280;37131;42.694;23.350;2023-05-23T01:48:44;95351.25;;;9.98;100.00
51083;BME280;37131;42.694;23.350;2023-05-23T01:51:10;95355.63;;;9.98;100.00
51083;BME280;37131;42.694;23.350;2023-05-23T01:53:35;95350.66;;;9.96;100.00
51083;BME280;37131;42.694;23.350;2023-05-23T01:56:01;95354.19;;;10.02;100.00
51083;BME280;37131;42.694;23.350;2023-05-23T01:58:27;95353.53;;;10.07;100.00
51083;BME280;37131;42.694;23.350;2023-05-23T02:00:53;95348.78;;;10.04;100.00
51083;BME280;37131;42.694;23.350;2023-05-23T02:03:18;95353.47;;;9.95;100.00
51083;BME280;37131;42.694;23.350;2023-05-23T02:05:43;95358.25;;;9.98;100.00
51083;BME280;37131;42.694;23.350;2023-05-23T02:08:08;95358.06;;;9.99;100.00
51083;BME280;37131;42.694;23.350;2023-05-23T02:10:34;95356.06;;;9.95;100.00
51083;BME280;37131;42.694;23.350;2023-05-23T02:12:59;95358.78;;;9.88;100.00
51083;BME280;37131;42.694;23.350;2023-05-23T02:15:24;95361.38;;;9.88;100.00
51083;BME280;37131;42.694;23.350;2023-05-23T02:17:50;95363.09;;;9.94;100.00
51083;BME280;37131;42.694;23.350;2023-05-23T02:20:15;95355.84;;;9.96;100.00
51083;BME280;37131;42.694;23.350;2023-05-23T02:22:42;95359.34;;;9.90;100.00
51083;BME280;37131;42.694;23.350;2023-05-23T02:25:08;95356.66;;;9.78;100.00
51083;BME280;37131;42.694;23.350;2023-05-23T02:27:33;95363.50;;;9.73;100.00
51083;BME280;37131;42.694;23.350;2023-05-23T02:29:58;95350.28;;;9.74;100.00
51083;BME280;37131;42.694;23.350;2023-05-23T02:32:24;95355.91;;;9.71;100.00
51083;BME280;37131;42.694;23.350;2023-05-23T02:34:50;95357.91;;;9.76;100.00
51083;BME280;37131;42.694;23.350;2023-05-23T02:37:15;95346.22;;;9.78;100.00
51083;BME280;37131;42.694;23.350;2023-05-23T02:39:41;95354.00;;;9.85;100.00
51083;BME280;37131;42.694;23.350;2023-05-23T02:42:07;95352.56;;;9.89;100.00
51083;BME280;37131;42.694;23.350;2023-05-23T02:44:32;95346.75;;;9.87;100.00
51083;BME280;37131;42.694;23.350;2023-05-23T02:46:57;95351.88;;;9.75;100.00
51083;BME280;37131;42.694;23.350;2023-05-23T02:49:22;95351.34;;;9.66;100.00
51083;BME280;37131;42.694;23.350;2023-05-23T02:51:48;95344.16;;;9.69;100.00
51083;BME280;37131;42.694;23.350;2023-05-23T02:54:13;95355.00;;;9.65;100.00
51083;BME280;37131;42.694;23.350;2023-05-23T02:56:38;95354.09;;;9.53;100.00
51083;BME280;37131;42.694;23.350;2023-05-23T02:59:04;95348.16;;;9.46;100.00
51083;BME280;37131;42.694;23.350;2023-05-23T03:01:29;95356.91;;;9.52;100.00
51083;BME280;37131;42.694;23.350;2023-05-23T03:03:55;95345.31;;;9.47;100.00
51083;BME280;37131;42.694;23.350;2023-05-23T03:06:20;95349.88;;;9.34;100.00
51083;BME280;37131;42.694;23.350;2023-05-23T03:08:46;95361.91;;;9.28;100.00
51083;BME280;37131;42.694;23.350;2023-05-23T03:11:12;95355.72;;;9.29;100.00
51083;BME280;37131;42.694;23.350;2023-05-23T03:13:37;95348.88;;;9.35;100.00
51083;BME280;37131;42.694;23.350;2023-05-23T03:16:03;95352.25;;;9.35;100.00
51083;BME280;37131;42.694;23.350;2023-05-23T03:18:28;95345.31;;;9.47;100.00
51083;BME280;37131;42.694;23.350;2023-05-23T03:20:53;95355.47;;;9.56;100.00
51083;BME280;37131;42.694;23.350;2023-05-23T03:23:18;95350.41;;;9.61;100.00
51083;BME280;37131;42.694;23.350;2023-05-23T03:25:44;95360.13;;;9.54;100.00
51083;BME280;37131;42.694;23.350;2023-05-23T03:28:09;95359.03;;;9.61;100.00
51083;BME280;37131;42.694;23.350;2023-05-23T03:30:36;95362.22;;;9.63;100.00
51083;BME280;37131;42.694;23.350;2023-05-23T03:33:01;95361.13;;;9.71;100.00
51083;BME280;37131;42.694;23.350;2023-05-23T03:35:27;95372.34;;;9.72;100.00
51083;BME280;37131;42.694;23.350;2023-05-23T03:37:52;95372.63;;;9.63;100.00
51083;BME280;37131;42.694;23.350;2023-05-23T03:40:17;95370.03;;;9.63;100.00
51083;BME280;37131;42.694;23.350;2023-05-23T03:42:42;95366.41;;;9.64;100.00
51083;BME280;37131;42.694;23.350;2023-05-23T03:45:08;95378.44;;;9.65;100.00
51083;BME280;37131;42.694;23.350;2023-05-23T03:47:33;95377.19;;;9.68;100.00
51083;BME280;37131;42.694;23.350;2023-05-23T03:49:58;95377.78;;;9.70;100.00
51083;BME280;37131;42.694;23.350;2023-05-23T03:52:23;95377.69;;;9.77;100.00
51083;BME280;37131;42.694;23.350;2023-05-23T03:54:49;95383.13;;;9.75;100.00
51083;BME280;37131;42.694;23.350;2023-05-23T03:57:14;95388.97;;;9.71;100.00
51083;BME280;37131;42.694;23.350;2023-05-23T03:59:39;95380.00;;;9.66;100.00
51083;BME280;37131;42.694;23.350;2023-05-23T04:02:05;95384.25;;;9.61;100.00
51083;BME280;37131;42.694;23.350;2023-05-23T04:04:30;95380.81;;;9.67;100.00
51083;BME280;37131;42.694;23.350;2023-05-23T04:06:56;95377.91;;;9.75;100.00
51083;BME280;37131;42.694;23.350;2023-05-23T04:09:22;95372.06;;;9.80;100.00
51083;BME280;37131;42.694;23.350;2023-05-23T04:11:47;95371.53;;;9.71;100.00
51083;BME280;37131;42.694;23.350;2023-05-23T04:14:13;95378.81;;;9.88;100.00
51083;BME280;37131;42.694;23.350;2023-05-23T04:16:38;95377.72;;;9.95;100.00
51083;BME280;37131;42.694;23.350;2023-05-23T04:19:05;95379.09;;;9.98;100.00
51083;BME280;37131;42.694;23.350;2023-05-23T04:21:31;95366.66;;;10.00;100.00
51083;BME280;37131;42.694;23.350;2023-05-23T04:23:56;95375.69;;;9.97;100.00
51083;BME280;37131;42.694;23.350;2023-05-23T04:26:21;95375.56;;;10.11;100.00
51083;BME280;37131;42.694;23.350;2023-05-23T04:28:47;95389.00;;;10.08;100.00
51083;BME280;37131;42.694;23.350;2023-05-23T04:31:12;95391.53;;;9.96;100.00
51083;BME280;37131;42.694;23.350;2023-05-23T04:33:38;95391.47;;;9.84;100.00
51083;BME280;37131;42.694;23.350;2023-05-23T04:36:03;95396.22;;;9.69;100.00
51083;BME280;37131;42.694;23.350;2023-05-23T04:38:29;95380.91;;;9.79;100.00
51083;BME280;37131;42.694;23.350;2023-05-23T04:40:54;95383.50;;;9.79;100.00
51083;BME280;37131;42.694;23.350;2023-05-23T04:43:19;95389.63;;;9.66;100.00
51083;BME280;37131;42.694;23.350;2023-05-23T04:45:46;95399.25;;;9.65;100.00
51083;BME280;37131;42.694;23.350;2023-05-23T04:48:13;95400.69;;;9.80;100.00
51083;BME280;37131;42.694;23.350;2023-05-23T04:50:41;95405.91;;;9.80;100.00
51083;BME280;37131;42.694;23.350;2023-05-23T04:53:06;95403.66;;;9.65;100.00
51083;BME280;37131;42.694;23.350;2023-05-23T04:55:31;95401.22;;;9.45;100.00
51083;BME280;37131;42.694;23.350;2023-05-23T04:57:57;95404.72;;;9.57;100.00
51083;BME280;37131;42.694;23.350;2023-05-23T05:00:22;95397.44;;;9.66;100.00
51083;BME280;37131;42.694;23.350;2023-05-23T05:02:47;95398.41;;;9.72;100.00
51083;BME280;37131;42.694;23.350;2023-05-23T05:05:13;95402.00;;;9.71;100.00
51083;BME280;37131;42.694;23.350;2023-05-23T05:07:38;95404.91;;;9.81;100.00
51083;BME280;37131;42.694;23.350;2023-05-23T05:10:04;95412.38;;;9.96;100.00
51083;BME280;37131;42.694;23.350;2023-05-23T05:12:30;95406.91;;;10.04;100.00
51083;BME280;37131;42.694;23.350;2023-05-23T05:14:55;95408.69;;;10.04;100.00
51083;BME280;37131;42.694;23.350;2023-05-23T05:17:20;95410.84;;;9.88;100.00
51083;BME280;37131;42.694;23.350;2023-05-23T05:19:46;95417.44;;;9.91;100.00
51083;BME280;37131;42.694;23.350;2023-05-23T05:22:11;95417.09;;;10.06;100.00
51083;BME280;37131;42.694;23.350;2023-05-23T05:24:36;95421.66;;;10.10;100.00
51083;BME280;37131;42.694;23.350;2023-05-23T05:27:02;95423.19;;;9.99;100.00
51083;BME280;37131;42.694;23.350;2023-05-23T05:29:27;95415.75;;;9.96;100.00
51083;BME280;37131;42.694;23.350;2023-05-23T05:31:52;95412.28;;;9.84;100.00
51083;BME280;37131;42.694;23.350;2023-05-23T05:34:18;95411.50;;;10.02;100.00
51083;BME280;37131;42.694;23.350;2023-05-23T05:36:43;95419.53;;;10.00;100.00
51083;BME280;37131;42.694;23.350;2023-05-23T05:39:12;95419.72;;;10.06;100.00
51083;BME280;37131;42.694;23.350;2023-05-23T05:41:38;95420.56;;;10.18;100.00
51083;BME280;37131;42.694;23.350;2023-05-23T05:44:04;95417.84;;;10.13;100.00
51083;BME280;37131;42.694;23.350;2023-05-23T05:46:29;95417.63;;;10.14;100.00
51083;BME280;37131;42.694;23.350;2023-05-23T05:48:54;95424.34;;;10.22;100.00
51083;BME280;37131;42.694;23.350;2023-05-23T05:51:20;95424.34;;;10.41;100.00
51083;BME280;37131;42.694;23.350;2023-05-23T05:53:45;95414.53;;;10.43;100.00
51083;BME280;37131;42.694;23.350;2023-05-23T05:56:11;95419.00;;;10.54;100.00
51083;BME280;37131;42.694;23.350;2023-05-23T05:58:36;95417.91;;;10.62;100.00
51083;BME280;37131;42.694;23.350;2023-05-23T06:01:01;95416.84;;;10.81;100.00
51083;BME280;37131;42.694;23.350;2023-05-23T06:03:27;95420.06;;;10.95;100.00
51083;BME280;37131;42.694;23.350;2023-05-23T06:05:52;95416.66;;;11.25;100.00
51083;BME280;37131;42.694;23.350;2023-05-23T06:08:18;95423.22;;;11.28;100.00
51083;BME280;37131;42.694;23.350;2023-05-23T06:10:43;95419.47;;;11.12;100.00
51083;BME280;37131;42.694;23.350;2023-05-23T06:13:08;95420.88;;;10.96;100.00
51083;BME280;37131;42.694;23.350;2023-05-23T06:15:34;95420.91;;;11.08;100.00
51083;BME280;37131;42.694;23.350;2023-05-23T06:17:59;95421.84;;;11.13;100.00
51083;BME280;37131;42.694;23.350;2023-05-23T06:20:24;95420.84;;;11.26;100.00
51083;BME280;37131;42.694;23.350;2023-05-23T06:22:50;95421.44;;;11.28;100.00
51083;BME280;37131;42.694;23.350;2023-05-23T06:25:15;95420.72;;;11.21;100.00
51083;BME280;37131;42.694;23.350;2023-05-23T06:27:40;95427.34;;;11.35;100.00
51083;BME280;37131;42.694;23.350;2023-05-23T06:30:06;95419.25;;;11.25;100.00
51083;BME280;37131;42.694;23.350;2023-05-23T06:32:31;95423.50;;;11.50;100.00
51083;BME280;37131;42.694;23.350;2023-05-23T06:34:56;95418.63;;;11.41;100.00
51083;BME280;37131;42.694;23.350;2023-05-23T06:37:22;95418.19;;;11.68;100.00
51083;BME280;37131;42.694;23.350;2023-05-23T06:39:47;95426.25;;;11.67;100.00
51083;BME280;37131;42.694;23.350;2023-05-23T06:42:13;95416.72;;;11.84;100.00
51083;BME280;37131;42.694;23.350;2023-05-23T06:44:38;95414.22;;;11.89;100.00
51083;BME280;37131;42.694;23.350;2023-05-23T06:47:04;95416.03;;;11.77;100.00
51083;BME280;37131;42.694;23.350;2023-05-23T06:49:29;95410.34;;;12.16;100.00
51083;BME280;37131;42.694;23.350;2023-05-23T06:51:55;95409.22;;;12.11;100.00
51083;BME280;37131;42.694;23.350;2023-05-23T06:54:20;95408.03;;;12.31;100.00
51083;BME280;37131;42.694;23.350;2023-05-23T06:56:45;95402.69;;;12.38;100.00
51083;BME280;37131;42.694;23.350;2023-05-23T06:59:10;95400.19;;;12.43;100.00
51083;BME280;37131;42.694;23.350;2023-05-23T07:01:35;95400.53;;;12.46;100.00
51083;BME280;37131;42.694;23.350;2023-05-23T07:04:01;95395.75;;;12.43;100.00
51083;BME280;37131;42.694;23.350;2023-05-23T07:06:26;95367.16;;;12.25;100.00
51083;BME280;37131;42.694;23.350;2023-05-23T07:08:52;95400.44;;;12.70;100.00
51083;BME280;37131;42.694;23.350;2023-05-23T07:11:17;95399.63;;;12.81;100.00
51083;BME280;37131;42.694;23.350;2023-05-23T07:13:42;95395.34;;;12.92;100.00
51083;BME280;37131;42.694;23.350;2023-05-23T07:16:07;95388.81;;;12.78;100.00
51083;BME280;37131;42.694;23.350;2023-05-23T07:18:33;95391.06;;;12.86;100.00
51083;BME280;37131;42.694;23.350;2023-05-23T07:20:58;95383.00;;;13.05;100.00
51083;BME280;37131;42.694;23.350;2023-05-23T07:23:23;95381.09;;;13.00;100.00
51083;BME280;37131;42.694;23.350;2023-05-23T07:25:49;95380.06;;;13.18;100.00
51083;BME280;37131;42.694;23.350;2023-05-23T07:28:14;95376.97;;;13.04;100.00
51083;BME280;37131;42.694;23.350;2023-05-23T07:30:40;95376.13;;;13.15;100.00
51083;BME280;37131;42.694;23.350;2023-05-23T07:33:05;95372.78;;;13.20;100.00
51083;BME280;37131;42.694;23.350;2023-05-23T07:35:31;95373.28;;;13.17;100.00
51083;BME280;37131;42.694;23.350;2023-05-23T07:37:56;95368.56;;;13.19;100.00
51083;BME280;37131;42.694;23.350;2023-05-23T07:40:21;95368.50;;;13.31;100.00
51083;BME280;37131;42.694;23.350;2023-05-23T07:42:47;95366.94;;;13.64;100.00
51083;BME280;37131;42.694;23.350;2023-05-23T07:45:12;95369.75;;;13.28;100.00
51083;BME280;37131;42.694;23.350;2023-05-23T07:47:38;95366.63;;;13.43;100.00
51083;BME280;37131;42.694;23.350;2023-05-23T07:50:04;95356.69;;;13.79;100.00
51083;BME280;37131;42.694;23.350;2023-05-23T07:52:29;95359.69;;;13.88;100.00
51083;BME280;37131;42.694;23.350;2023-05-23T07:54:55;95361.75;;;14.08;100.00
51083;BME280;37131;42.694;23.350;2023-05-23T07:57:21;95359.97;;;13.92;100.00
51083;BME280;37131;42.694;23.350;2023-05-23T07:59:48;95365.91;;;14.04;100.00
51083;BME280;37131;42.694;23.350;2023-05-23T08:02:13;95355.84;;;14.18;100.00
51083;BME280;37131;42.694;23.350;2023-05-23T08:04:39;95362.25;;;14.05;100.00
51083;BME280;37131;42.694;23.350;2023-05-23T08:07:04;95359.34;;;14.24;100.00
51083;BME280;37131;42.694;23.350;2023-05-23T08:09:29;95356.00;;;14.55;100.00
51083;BME280;37131;42.694;23.350;2023-05-23T08:11:55;95352.56;;;14.72;100.00
51083;BME280;37131;42.694;23.350;2023-05-23T08:14:21;95350.84;;;14.61;100.00
51083;BME280;37131;42.694;23.350;2023-05-23T08:16:46;95348.53;;;14.64;100.00
51083;BME280;37131;42.694;23.350;2023-05-23T08:19:12;95349.97;;;14.77;100.00
51083;BME280;37131;42.694;23.350;2023-05-23T08:21:37;95348.63;;;15.02;100.00
51083;BME280;37131;42.694;23.350;2023-05-23T08:24:02;95352.88;;;15.08;100.00
51083;BME280;37131;42.694;23.350;2023-05-23T08:26:28;95357.72;;;15.21;100.00
51083;BME280;37131;42.694;23.350;2023-05-23T08:28:58;95349.63;;;15.60;100.00
51083;BME280;37131;42.694;23.350;2023-05-23T08:31:24;95348.31;;;15.63;100.00
51083;BME280;37131;42.694;23.350;2023-05-23T08:33:51;95349.25;;;15.84;100.00
51083;BME280;37131;42.694;23.350;2023-05-23T08:36:16;95339.78;;;15.83;100.00
51083;BME280;37131;42.694;23.350;2023-05-23T08:38:42;95331.13;;;15.88;100.00
51083;BME280;37131;42.694;23.350;2023-05-23T08:41:08;95336.69;;;15.96;100.00
51083;BME280;37131;42.694;23.350;2023-05-23T08:43:40;95335.41;;;16.04;98.38
51083;BME280;37131;42.694;23.350;2023-05-23T08:46:05;95328.97;;;16.43;95.47
51083;BME280;37131;42.694;23.350;2023-05-23T08:48:30;95337.06;;;16.21;97.15
51083;BME280;37131;42.694;23.350;2023-05-23T08:50:57;95331.34;;;16.44;98.15
51083;BME280;37131;42.694;23.350;2023-05-23T08:53:23;95335.28;;;16.37;96.50
51083;BME280;37131;42.694;23.350;2023-05-23T08:55:51;95331.34;;;16.44;94.44
51083;BME280;37131;42.694;23.350;2023-05-23T08:58:18;95336.41;;;16.66;94.22
51083;BME280;37131;42.694;23.350;2023-05-23T09:00:48;95329.66;;;16.91;95.05
51083;BME280;37131;42.694;23.350;2023-05-23T09:03:15;95324.41;;;17.17;93.75
51083;BME280;37131;42.694;23.350;2023-05-23T09:05:41;95324.63;;;17.36;93.53
51083;BME280;37131;42.694;23.350;2023-05-23T09:08:06;95317.28;;;17.48;89.82
51083;BME280;37131;42.694;23.350;2023-05-23T09:10:32;95324.63;;;17.62;83.83
51083;BME280;37131;42.694;23.350;2023-05-23T09:12:58;95325.69;;;17.40;84.05
51083;BME280;37131;42.694;23.350;2023-05-23T09:15:23;95322.78;;;17.57;85.22
51083;BME280;37131;42.694;23.350;2023-05-23T09:17:50;95316.94;;;17.91;84.88
51083;BME280;37131;42.694;23.350;2023-05-23T09:20:15;95307.03;;;18.28;82.70
51083;BME280;37131;42.694;23.350;2023-05-23T09:22:47;95307.75;;;18.44;82.01
51083;BME280;37131;42.694;23.350;2023-05-23T09:25:13;95302.94;;;18.56;79.86
51083;BME280;37131;42.694;23.350;2023-05-23T09:27:38;95301.81;;;18.67;75.01
51083;BME280;37131;42.694;23.350;2023-05-23T09:30:06;95303.03;;;18.85;71.11
51083;BME280;37131;42.694;23.350;2023-05-23T09:32:32;95300.97;;;19.17;63.43
51083;BME280;37131;42.694;23.350;2023-05-23T09:34:58;95299.25;;;19.02;62.38
51083;BME280;37131;42.694;23.350;2023-05-23T09:37:44;95296.66;;;19.26;67.15
51083;BME280;37131;42.694;23.350;2023-05-23T09:40:12;95298.44;;;19.36;63.38
51083;BME280;37131;42.694;23.350;2023-05-23T09:42:42;95295.06;;;19.54;63.89
51083;BME280;37131;42.694;23.350;2023-05-23T09:45:08;95292.69;;;19.58;64.58
51083;BME280;37131;42.694;23.350;2023-05-23T09:47:33;95284.63;;;19.68;64.11
51083;BME280;37131;42.694;23.350;2023-05-23T09:49:58;95275.03;;;19.72;57.51
51083;BME280;37131;42.694;23.350;2023-05-23T09:52:24;95279.91;;;19.65;55.85
51083;BME280;37131;42.694;23.350;2023-05-23T09:54:50;95276.34;;;19.80;59.30
51083;BME280;37131;42.694;23.350;2023-05-23T09:57:15;95272.03;;;20.08;53.86
51083;BME280;37131;42.694;23.350;2023-05-23T09:59:41;95264.72;;;20.00;57.51
51083;BME280;37131;42.694;23.350;2023-05-23T10:02:12;95265.53;;;20.01;56.43
51083;BME280;37131;42.694;23.350;2023-05-23T10:04:40;95271.22;;;20.32;57.27
51083;BME280;37131;42.694;23.350;2023-05-23T10:07:13;95266.84;;;20.41;56.05
51083;BME280;37131;42.694;23.350;2023-05-23T10:09:43;95266.56;;;20.62;55.64
51083;BME280;37131;42.694;23.350;2023-05-23T10:14:56;95264.94;;;20.66;51.77
51083;BME280;37131;42.694;23.350;2023-05-23T10:17:28;95260.06;;;20.73;51.51
51083;BME280;37131;42.694;23.350;2023-05-23T10:20:17;95269.56;;;20.74;51.26
51083;BME280;37131;42.694;23.350;2023-05-23T10:22:41;95259.97;;;20.78;50.46
51083;BME280;37131;42.694;23.350;2023-05-23T10:25:07;95252.28;;;20.96;50.68
51083;BME280;37131;42.694;23.350;2023-05-23T10:27:34;95255.25;;;20.94;48.44
51083;BME280;37131;42.694;23.350;2023-05-23T10:30:01;95259.91;;;20.83;43.94
51083;BME280;37131;42.694;23.350;2023-05-23T10:32:26;95256.28;;;20.79;46.63
51083;BME280;37131;42.694;23.350;2023-05-23T10:34:57;95248.94;;;20.90;44.89
51083;BME280;37131;42.694;23.350;2023-05-23T10:37:30;95251.53;;;20.76;44.51
51083;BME280;37131;42.694;23.350;2023-05-23T10:42:41;95244.19;;;21.06;48.30
51083;BME280;37131;42.694;23.350;2023-05-23T10:45:19;95246.59;;;21.22;49.30
51083;BME280;37131;42.694;23.350;2023-05-23T10:47:45;95238.94;;;21.20;48.94
51083;BME280;37131;42.694;23.350;2023-05-23T10:50:11;95239.91;;;21.24;47.34
51083;BME280;37131;42.694;23.350;2023-05-23T10:52:38;95236.75;;;21.22;47.37
51083;BME280;37131;42.694;23.350;2023-05-23T10:55:10;95233.25;;;21.41;46.31
51083;BME280;37131;42.694;23.350;2023-05-23T10:57:36;95231.00;;;21.48;44.33
51083;BME280;37131;42.694;23.350;2023-05-23T11:00:01;95220.31;;;21.53;45.23
51083;BME280;37131;42.694;23.350;2023-05-23T11:02:28;95233.47;;;21.44;45.77
51083;BME280;37131;42.694;23.350;2023-05-23T11:05:38;95228.09;;;21.63;42.90
51083;BME280;37131;42.694;23.350;2023-05-23T11:07:39;95232.09;;;21.47;42.98
51083;BME280;37131;42.694;23.350;2023-05-23T11:10:10;95215.53;;;21.69;41.81
51083;BME280;37131;42.694;23.350;2023-05-23T11:12:40;95217.28;;;21.73;43.98
51083;BME280;37131;42.694;23.350;2023-05-23T11:15:21;95212.88;;;21.69;43.86
51083;BME280;37131;42.694;23.350;2023-05-23T11:17:51;95205.38;;;21.99;43.15
51083;BME280;37131;42.694;23.350;2023-05-23T11:20:17;95208.81;;;21.85;41.33
51083;BME280;37131;42.694;23.350;2023-05-23T11:22:53;95219.25;;;21.68;42.52
51083;BME280;37131;42.694;23.350;2023-05-23T11:25:19;95210.56;;;21.48;43.25
51083;BME280;37131;42.694;23.350;2023-05-23T11:27:45;95212.41;;;21.34;44.18
51083;BME280;37131;42.694;23.350;2023-05-23T11:30:11;95207.38;;;21.18;41.64
51083;BME280;37131;42.694;23.350;2023-05-23T11:32:40;95194.75;;;21.43;41.06
51083;BME280;37131;42.694;23.350;2023-05-23T11:35:06;95196.63;;;21.57;44.91
51083;BME280;37131;42.694;23.350;2023-05-23T11:37:32;95199.19;;;21.76;41.90
51083;BME280;37131;42.694;23.350;2023-05-23T11:39:57;95196.53;;;21.89;41.55
51083;BME280;37131;42.694;23.350;2023-05-23T11:42:23;95186.69;;;21.90;42.94
51083;BME280;37131;42.694;23.350;2023-05-23T11:44:49;95188.19;;;22.19;42.07
51083;BME280;37131;42.694;23.350;2023-05-23T11:47:15;95188.69;;;22.35;42.98
51083;BME280;37131;42.694;23.350;2023-05-23T11:49:42;95184.78;;;22.55;42.43
51083;BME280;37131;42.694;23.350;2023-05-23T11:52:08;95189.66;;;22.39;44.12
51083;BME280;37131;42.694;23.350;2023-05-23T11:54:34;95188.72;;;22.57;41.03
51083;BME280;37131;42.694;23.350;2023-05-23T11:56:59;95187.59;;;22.58;41.00
51083;BME280;37131;42.694;23.350;2023-05-23T11:59:25;95182.50;;;22.25;41.49
51083;BME280;37131;42.694;23.350;2023-05-23T12:01:52;95174.91;;;22.19;42.16
51083;BME280;37131;42.694;23.350;2023-05-23T12:04:17;95176.13;;;21.76;41.81
51083;BME280;37131;42.694;23.350;2023-05-23T12:06:45;95179.69;;;22.31;42.77
51083;BME280;37131;42.694;23.350;2023-05-23T12:09:10;95173.34;;;22.32;41.63
51083;BME280;37131;42.694;23.350;2023-05-23T12:11:37;95167.69;;;21.97;41.13
51083;BME280;37131;42.694;23.350;2023-05-23T12:14:03;95161.00;;;22.13;40.26
51083;BME280;37131;42.694;23.350;2023-05-23T12:16:34;95161.84;;;22.22;40.06
51083;BME280;37131;42.694;23.350;2023-05-23T12:18:59;95156.34;;;22.33;40.70
51083;BME280;37131;42.694;23.350;2023-05-23T12:21:25;95156.47;;;22.14;39.61
51083;BME280;37131;42.694;23.350;2023-05-23T12:23:51;95147.69;;;22.50;43.22
51083;BME280;37131;42.694;23.350;2023-05-23T12:26:16;95146.53;;;22.42;40.31
51083;BME280;37131;42.694;23.350;2023-05-23T12:28:42;95149.78;;;22.16;42.13
51083;BME280;37131;42.694;23.350;2023-05-23T12:31:16;95144.78;;;22.01;42.39
51083;BME280;37131;42.694;23.350;2023-05-23T12:33:42;95140.59;;;22.00;42.47
51083;BME280;37131;42.694;23.350;2023-05-23T12:36:08;95141.50;;;22.18;40.67
51083;BME280;37131;42.694;23.350;2023-05-23T12:38:33;95136.72;;;22.06;40.23
51083;BME280;37131;42.694;23.350;2023-05-23T12:41:08;95139.03;;;22.21;37.12
51083;BME280;37131;42.694;23.350;2023-05-23T12:43:36;95136.53;;;22.39;37.17
51083;BME280;37131;42.694;23.350;2023-05-23T12:46:02;95129.16;;;22.58;37.40
51083;BME280;37131;42.694;23.350;2023-05-23T12:48:27;95134.72;;;22.71;38.58
51083;BME280;37131;42.694;23.350;2023-05-23T12:50:52;95130.00;;;22.68;37.42